sensor_id;sensor_type;location;lat;lon;timestamp;P1;durP1;ratioP1;P2;durP2;ratioP2
45694;SDS011;31408;45.468;9.124;2023-08-20T00:02:00;14.43;;;8.20;;
45694;SDS011;31408;45.468;9.124;2023-08-20T00:04:26;20.67;;;9.07;;
45694;SDS011;31408;45.468;9.124;2023-08-20T00:06:53;18.85;;;9.98;;
45694;SDS011;31408;45.468;9.124;2023-08-20T00:09:18;21.60;;;10.80;;
45694;SDS011;31408;45.468;9.124;2023-08-20T00:11:43;20.88;;;9.43;;
45694;SDS011;31408;45.468;9.124;2023-08-20T00:14:15;15.55;;;8.25;;
45694;SDS011;31408;45.468;9.124;2023-08-20T00:16:40;18.85;;;9.60;;
45694;SDS011;31408;45.468;9.124;2023-08-20T00:19:06;18.02;;;8.85;;
45694;SDS011;31408;45.468;9.124;2023-08-20T00:21:32;17.85;;;8.13;;
45694;SDS011;31408;45.468;9.124;2023-08-20T00:23:57;18.13;;;8.20;;
45694;SDS011;31408;45.468;9.124;2023-08-20T00:26:23;13.75;;;8.23;;
45694;SDS011;31408;45.468;9.124;2023-08-20T00:28:48;20.35;;;8.70;;
45694;SDS011;31408;45.468;9.124;2023-08-20T00:31:14;18.00;;;9.10;;
45694;SDS011;31408;45.468;9.124;2023-08-20T00:33:40;17.52;;;8.65;;
45694;SDS011;31408;45.468;9.124;2023-08-20T00:36:06;14.90;;;8.60;;
45694;SDS011;31408;45.468;9.124;2023-08-20T00:38:31;19.05;;;8.23;;
45694;SDS011;31408;45.468;9.124;2023-08-20T00:40:56;23.88;;;8.82;;
45694;SDS011;31408;45.468;9.124;2023-08-20T00:43:22;15.88;;;8.65;;
45694;SDS011;31408;45.468;9.124;2023-08-20T00:45:48;16.23;;;9.07;;
45694;SDS011;31408;45.468;9.124;2023-08-20T00:48:13;12.80;;;7.85;;
45694;SDS011;31408;45.468;9.124;2023-08-20T00:50:39;15.85;;;8.73;;
45694;SDS011;31408;45.468;9.124;2023-08-20T00:53:06;18.35;;;8.65;;
45694;SDS011;31408;45.468;9.124;2023-08-20T00:55:32;18.85;;;7.82;;
45694;SDS011;31408;45.468;9.124;2023-08-20T00:57:57;18.75;;;8.45;;
45694;SDS011;31408;45.468;9.124;2023-08-20T01:00:23;15.73;;;8.07;;
45694;SDS011;31408;45.468;9.124;2023-08-20T01:02:48;15.00;;;8.45;;
45694;SDS011;31408;45.468;9.124;2023-08-20T01:05:13;13.18;;;7.43;;
45694;SDS011;31408;45.468;9.124;2023-08-20T01:12:56;13.90;;;7.22;;
45694;SDS011;31408;45.468;9.124;2023-08-20T01:15:23;15.07;;;9.00;;
45694;SDS011;31408;45.468;9.124;2023-08-20T01:17:48;14.00;;;7.38;;
45694;SDS011;31408;45.468;9.124;2023-08-20T01:20:13;18.55;;;7.78;;
45694;SDS011;31408;45.468;9.124;2023-08-20T01:30:15;13.32;;;7.88;;
45694;SDS011;31408;45.468;9.124;2023-08-20T01:32:41;13.10;;;7.57;;
45694;SDS011;31408;45.468;9.124;2023-08-20T01:35:13;13.38;;;7.15;;
45694;SDS011;31408;45.468;9.124;2023-08-20T01:37:39;13.05;;;7.80;;
45694;SDS011;31408;45.468;9.124;2023-08-20T01:40:05;17.08;;;7.78;;
45694;SDS011;31408;45.468;9.124;2023-08-20T01:42:32;12.52;;;7.38;;
45694;SDS011;31408;45.468;9.124;2023-08-20T01:44:57;14.18;;;7.55;;
45694;SDS011;31408;45.468;9.124;2023-08-20T01:47:23;12.48;;;7.53;;
45694;SDS011;31408;45.468;9.124;2023-08-20T01:49:48;11.77;;;6.72;;
45694;SDS011;31408;45.468;9.124;2023-08-20T01:52:14;13.48;;;7.63;;
45694;SDS011;31408;45.468;9.124;2023-08-20T01:54:39;13.60;;;7.45;;
45694;SDS011;31408;45.468;9.124;2023-08-20T01:57:04;17.20;;;7.90;;
45694;SDS011;31408;45.468;9.124;2023-08-20T01:59:30;13.30;;;6.95;;
45694;SDS011;31408;45.468;9.124;2023-08-20T02:01:55;15.35;;;8.13;;
45694;SDS011;31408;45.468;9.124;2023-08-20T02:04:20;15.38;;;7.38;;
45694;SDS011;31408;45.468;9.124;2023-08-20T02:06:46;13.45;;;7.55;;
45694;SDS011;31408;45.468;9.124;2023-08-20T02:09:12;12.35;;;7.03;;
45694;SDS011;31408;45.468;9.124;2023-08-20T02:11:38;13.02;;;7.10;;
45694;SDS011;31408;45.468;9.124;2023-08-20T02:14:03;13.15;;;6.68;;
45694;SDS011;31408;45.468;9.124;2023-08-20T02:16:29;13.77;;;7.28;;
45694;SDS011;31408;45.468;9.124;2023-08-20T02:18:54;18.75;;;9.15;;
45694;SDS011;31408;45.468;9.124;2023-08-20T02:21:19;10.60;;;6.30;;
45694;SDS011;31408;45.468;9.124;2023-08-20T02:23:45;13.63;;;7.25;;
45694;SDS011;31408;45.468;9.124;2023-08-20T02:26:10;12.98;;;6.32;;
45694;SDS011;31408;45.468;9.124;2023-08-20T02:28:35;12.38;;;6.15;;
45694;SDS011;31408;45.468;9.124;2023-08-20T02:31:03;15.60;;;7.65;;
45694;SDS011;31408;45.468;9.124;2023-08-20T02:33:29;11.68;;;6.43;;
45694;SDS011;31408;45.468;9.124;2023-08-20T02:35:54;10.55;;;7.00;;
45694;SDS011;31408;45.468;9.124;2023-08-20T02:38:21;10.48;;;6.32;;
45694;SDS011;31408;45.468;9.124;2023-08-20T02:40:46;12.02;;;7.03;;
45694;SDS011;31408;45.468;9.124;2023-08-20T02:43:11;11.60;;;6.18;;
45694;SDS011;31408;45.468;9.124;2023-08-20T02:45:43;9.80;;;5.85;;
45694;SDS011;31408;45.468;9.124;2023-08-20T02:48:09;12.95;;;7.07;;
45694;SDS011;31408;45.468;9.124;2023-08-20T02:50:35;11.90;;;6.40;;
45694;SDS011;31408;45.468;9.124;2023-08-20T02:53:00;10.05;;;6.28;;
45694;SDS011;31408;45.468;9.124;2023-08-20T02:55:25;12.75;;;5.97;;
45694;SDS011;31408;45.468;9.124;2023-08-20T02:57:51;11.95;;;6.72;;
45694;SDS011;31408;45.468;9.124;2023-08-20T03:00:16;13.10;;;7.10;;
45694;SDS011;31408;45.468;9.124;2023-08-20T03:02:42;13.45;;;6.88;;
45694;SDS011;31408;45.468;9.124;2023-08-20T03:05:08;17.08;;;6.72;;
45694;SDS011;31408;45.468;9.124;2023-08-20T03:07:34;13.52;;;6.65;;
45694;SDS011;31408;45.468;9.124;2023-08-20T03:09:59;20.13;;;7.13;;
45694;SDS011;31408;45.468;9.124;2023-08-20T03:12:25;13.77;;;5.88;;
45694;SDS011;31408;45.468;9.124;2023-08-20T03:14:50;12.18;;;6.43;;
45694;SDS011;31408;45.468;9.124;2023-08-20T03:17:15;10.38;;;6.22;;
45694;SDS011;31408;45.468;9.124;2023-08-20T03:19:53;12.63;;;6.50;;
45694;SDS011;31408;45.468;9.124;2023-08-20T03:22:19;13.35;;;6.25;;
45694;SDS011;31408;45.468;9.124;2023-08-20T03:24:44;10.43;;;6.60;;
45694;SDS011;31408;45.468;9.124;2023-08-20T03:27:09;21.58;;;6.82;;
45694;SDS011;31408;45.468;9.124;2023-08-20T03:29:35;14.68;;;5.90;;
45694;SDS011;31408;45.468;9.124;2023-08-20T03:32:00;12.95;;;7.03;;
45694;SDS011;31408;45.468;9.124;2023-08-20T03:34:26;22.67;;;8.32;;
45694;SDS011;31408;45.468;9.124;2023-08-20T03:36:51;10.35;;;6.63;;
45694;SDS011;31408;45.468;9.124;2023-08-20T03:39:17;12.23;;;6.97;;
45694;SDS011;31408;45.468;9.124;2023-08-20T03:41:42;11.88;;;6.88;;
45694;SDS011;31408;45.468;9.124;2023-08-20T03:44:07;14.32;;;7.32;;
45694;SDS011;31408;45.468;9.124;2023-08-20T03:46:33;10.35;;;6.75;;
45694;SDS011;31408;45.468;9.124;2023-08-20T03:48:58;15.75;;;6.60;;
45694;SDS011;31408;45.468;9.124;2023-08-20T03:51:23;10.50;;;7.18;;
45694;SDS011;31408;45.468;9.124;2023-08-20T03:53:49;13.20;;;6.90;;
45694;SDS011;31408;45.468;9.124;2023-08-20T03:56:14;17.48;;;6.93;;
45694;SDS011;31408;45.468;9.124;2023-08-20T03:58:45;12.95;;;7.07;;
45694;SDS011;31408;45.468;9.124;2023-08-20T04:01:10;10.35;;;6.50;;
45694;SDS011;31408;45.468;9.124;2023-08-20T04:03:35;10.77;;;6.88;;
45694;SDS011;31408;45.468;9.124;2023-08-20T04:06:01;13.57;;;7.47;;
45694;SDS011;31408;45.468;9.124;2023-08-20T04:08:26;12.38;;;7.15;;
45694;SDS011;31408;45.468;9.124;2023-08-20T04:10:51;11.82;;;7.00;;
45694;SDS011;31408;45.468;9.124;2023-08-20T04:13:17;9.45;;;6.55;;
45694;SDS011;31408;45.468;9.124;2023-08-20T04:15:42;13.52;;;7.20;;
45694;SDS011;31408;45.468;9.124;2023-08-20T04:18:08;15.13;;;7.57;;
45694;SDS011;31408;45.468;9.124;2023-08-20T04:20:33;16.77;;;6.97;;
45694;SDS011;31408;45.468;9.124;2023-08-20T04:23:00;14.15;;;6.60;;
45694;SDS011;31408;45.468;9.124;2023-08-20T04:25:26;15.38;;;7.53;;
45694;SDS011;31408;45.468;9.124;2023-08-20T04:27:52;13.80;;;7.10;;
45694;SDS011;31408;45.468;9.124;2023-08-20T04:30:17;10.80;;;6.72;;
45694;SDS011;31408;45.468;9.124;2023-08-20T04:32:43;12.90;;;6.85;;
45694;SDS011;31408;45.468;9.124;2023-08-20T04:35:08;11.10;;;6.72;;
45694;SDS011;31408;45.468;9.124;2023-08-20T04:37:33;12.77;;;6.65;;
45694;SDS011;31408;45.468;9.124;2023-08-20T04:39:59;11.20;;;6.65;;
45694;SDS011;31408;45.468;9.124;2023-08-20T04:42:24;14.90;;;7.05;;
45694;SDS011;31408;45.468;9.124;2023-08-20T04:44:50;15.77;;;7.20;;
45694;SDS011;31408;45.468;9.124;2023-08-20T04:47:16;13.80;;;8.27;;
45694;SDS011;31408;45.468;9.124;2023-08-20T04:49:42;12.50;;;7.15;;
45694;SDS011;31408;45.468;9.124;2023-08-20T04:52:07;10.15;;;5.80;;
45694;SDS011;31408;45.468;9.124;2023-08-20T04:54:33;13.95;;;7.22;;
45694;SDS011;31408;45.468;9.124;2023-08-20T04:56:58;14.65;;;7.72;;
45694;SDS011;31408;45.468;9.124;2023-08-20T04:59:23;13.52;;;7.35;;
45694;SDS011;31408;45.468;9.124;2023-08-20T05:01:52;15.52;;;8.18;;
45694;SDS011;31408;45.468;9.124;2023-08-20T05:04:22;17.35;;;8.27;;
45694;SDS011;31408;45.468;9.124;2023-08-20T05:06:48;14.77;;;7.30;;
45694;SDS011;31408;45.468;9.124;2023-08-20T05:09:14;12.27;;;7.35;;
45694;SDS011;31408;45.468;9.124;2023-08-20T05:11:41;17.45;;;8.57;;
45694;SDS011;31408;45.468;9.124;2023-08-20T05:14:06;13.50;;;7.10;;
45694;SDS011;31408;45.468;9.124;2023-08-20T05:16:31;16.23;;;7.55;;
45694;SDS011;31408;45.468;9.124;2023-08-20T05:18:57;11.50;;;6.88;;
45694;SDS011;31408;45.468;9.124;2023-08-20T05:21:22;22.35;;;8.38;;
45694;SDS011;31408;45.468;9.124;2023-08-20T05:23:48;12.70;;;8.13;;
45694;SDS011;31408;45.468;9.124;2023-08-20T05:26:13;16.33;;;7.03;;
45694;SDS011;31408;45.468;9.124;2023-08-20T05:28:38;13.77;;;7.32;;
45694;SDS011;31408;45.468;9.124;2023-08-20T05:31:04;14.77;;;7.15;;
45694;SDS011;31408;45.468;9.124;2023-08-20T05:33:30;10.07;;;6.65;;
45694;SDS011;31408;45.468;9.124;2023-08-20T05:35:55;12.55;;;7.50;;
45694;SDS011;31408;45.468;9.124;2023-08-20T05:38:21;14.23;;;7.60;;
45694;SDS011;31408;45.468;9.124;2023-08-20T05:40:48;13.52;;;8.68;;
45694;SDS011;31408;45.468;9.124;2023-08-20T05:43:13;15.40;;;7.38;;
45694;SDS011;31408;45.468;9.124;2023-08-20T05:45:39;14.05;;;6.22;;
45694;SDS011;31408;45.468;9.124;2023-08-20T05:48:06;13.40;;;6.88;;
45694;SDS011;31408;45.468;9.124;2023-08-20T05:50:31;12.32;;;6.70;;
45694;SDS011;31408;45.468;9.124;2023-08-20T05:52:57;13.70;;;6.88;;
45694;SDS011;31408;45.468;9.124;2023-08-20T05:55:22;10.30;;;6.18;;
45694;SDS011;31408;45.468;9.124;2023-08-20T05:57:48;10.60;;;6.55;;
45694;SDS011;31408;45.468;9.124;2023-08-20T06:00:13;13.57;;;6.72;;
45694;SDS011;31408;45.468;9.124;2023-08-20T06:02:40;15.93;;;7.97;;
45694;SDS011;31408;45.468;9.124;2023-08-20T06:05:07;13.23;;;6.53;;
45694;SDS011;31408;45.468;9.124;2023-08-20T06:07:33;10.63;;;7.10;;
45694;SDS011;31408;45.468;9.124;2023-08-20T06:09:58;14.20;;;6.32;;
45694;SDS011;31408;45.468;9.124;2023-08-20T06:12:24;10.23;;;7.03;;
45694;SDS011;31408;45.468;9.124;2023-08-20T06:14:49;11.20;;;6.43;;
45694;SDS011;31408;45.468;9.124;2023-08-20T06:17:15;11.18;;;6.47;;
45694;SDS011;31408;45.468;9.124;2023-08-20T06:19:40;13.80;;;6.53;;
45694;SDS011;31408;45.468;9.124;2023-08-20T06:22:05;11.93;;;6.35;;
45694;SDS011;31408;45.468;9.124;2023-08-20T06:24:31;9.98;;;6.25;;
45694;SDS011;31408;45.468;9.124;2023-08-20T06:26:56;14.20;;;7.80;;
45694;SDS011;31408;45.468;9.124;2023-08-20T06:29:26;10.30;;;6.07;;
45694;SDS011;31408;45.468;9.124;2023-08-20T06:31:52;11.38;;;6.55;;
45694;SDS011;31408;45.468;9.124;2023-08-20T06:34:17;11.98;;;6.45;;
45694;SDS011;31408;45.468;9.124;2023-08-20T06:36:42;11.00;;;6.35;;
45694;SDS011;31408;45.468;9.124;2023-08-20T06:39:08;10.02;;;6.22;;
45694;SDS011;31408;45.468;9.124;2023-08-20T06:41:34;9.13;;;5.60;;
45694;SDS011;31408;45.468;9.124;2023-08-20T06:43:59;12.80;;;6.78;;
45694;SDS011;31408;45.468;9.124;2023-08-20T06:46:24;10.50;;;5.47;;
45694;SDS011;31408;45.468;9.124;2023-08-20T06:48:55;9.25;;;5.28;;
45694;SDS011;31408;45.468;9.124;2023-08-20T06:51:21;10.82;;;6.18;;
45694;SDS011;31408;45.468;9.124;2023-08-20T06:53:46;9.63;;;5.72;;
45694;SDS011;31408;45.468;9.124;2023-08-20T06:56:12;12.77;;;5.72;;
45694;SDS011;31408;45.468;9.124;2023-08-20T06:58:38;10.82;;;5.63;;
45694;SDS011;31408;45.468;9.124;2023-08-20T07:01:04;8.07;;;4.82;;
45694;SDS011;31408;45.468;9.124;2023-08-20T07:03:42;12.90;;;5.80;;
45694;SDS011;31408;45.468;9.124;2023-08-20T07:06:08;12.45;;;5.78;;
45694;SDS011;31408;45.468;9.124;2023-08-20T07:08:37;13.27;;;5.65;;
45694;SDS011;31408;45.468;9.124;2023-08-20T07:11:04;7.82;;;5.25;;
45694;SDS011;31408;45.468;9.124;2023-08-20T07:13:31;9.88;;;5.43;;
45694;SDS011;31408;45.468;9.124;2023-08-20T07:15:56;10.60;;;5.38;;
45694;SDS011;31408;45.468;9.124;2023-08-20T07:18:22;12.20;;;6.18;;
45694;SDS011;31408;45.468;9.124;2023-08-20T07:20:47;11.70;;;5.05;;
45694;SDS011;31408;45.468;9.124;2023-08-20T07:23:12;9.18;;;5.15;;
45694;SDS011;31408;45.468;9.124;2023-08-20T07:25:38;6.05;;;4.43;;
45694;SDS011;31408;45.468;9.124;2023-08-20T07:28:04;6.38;;;4.82;;
45694;SDS011;31408;45.468;9.124;2023-08-20T07:30:30;11.23;;;5.07;;
45694;SDS011;31408;45.468;9.124;2023-08-20T07:32:55;6.05;;;4.40;;
45694;SDS011;31408;45.468;9.124;2023-08-20T07:35:20;9.38;;;4.43;;
45694;SDS011;31408;45.468;9.124;2023-08-20T07:37:46;8.50;;;4.70;;
45694;SDS011;31408;45.468;9.124;2023-08-20T07:40:12;5.57;;;4.38;;
45694;SDS011;31408;45.468;9.124;2023-08-20T07:42:38;6.20;;;3.92;;
45694;SDS011;31408;45.468;9.124;2023-08-20T07:45:03;6.85;;;4.13;;
45694;SDS011;31408;45.468;9.124;2023-08-20T07:47:29;5.45;;;4.05;;
45694;SDS011;31408;45.468;9.124;2023-08-20T07:49:55;7.93;;;4.47;;
45694;SDS011;31408;45.468;9.124;2023-08-20T07:52:20;11.95;;;5.07;;
45694;SDS011;31408;45.468;9.124;2023-08-20T07:54:45;10.82;;;5.82;;
45694;SDS011;31408;45.468;9.124;2023-08-20T07:57:11;9.18;;;4.88;;
45694;SDS011;31408;45.468;9.124;2023-08-20T07:59:37;9.35;;;6.25;;
45694;SDS011;31408;45.468;9.124;2023-08-20T08:02:02;8.52;;;4.50;;
45694;SDS011;31408;45.468;9.124;2023-08-20T08:04:27;10.50;;;5.15;;
45694;SDS011;31408;45.468;9.124;2023-08-20T08:06:53;10.07;;;5.35;;
45694;SDS011;31408;45.468;9.124;2023-08-20T08:09:19;7.80;;;5.22;;
45694;SDS011;31408;45.468;9.124;2023-08-20T08:11:48;9.45;;;5.40;;
45694;SDS011;31408;45.468;9.124;2023-08-20T08:14:13;7.63;;;4.80;;
45694;SDS011;31408;45.468;9.124;2023-08-20T08:16:39;7.10;;;4.78;;
45694;SDS011;31408;45.468;9.124;2023-08-20T08:19:04;8.82;;;5.75;;
45694;SDS011;31408;45.468;9.124;2023-08-20T08:21:30;9.45;;;5.25;;
45694;SDS011;31408;45.468;9.124;2023-08-20T08:23:55;8.88;;;5.65;;
45694;SDS011;31408;45.468;9.124;2023-08-20T08:26:20;9.27;;;4.93;;
45694;SDS011;31408;45.468;9.124;2023-08-20T08:28:50;13.77;;;5.55;;
45694;SDS011;31408;45.468;9.124;2023-08-20T08:31:16;11.95;;;5.18;;
45694;SDS011;31408;45.468;9.124;2023-08-20T08:33:41;13.25;;;6.07;;
45694;SDS011;31408;45.468;9.124;2023-08-20T08:36:06;8.65;;;5.03;;
45694;SDS011;31408;45.468;9.124;2023-08-20T08:38:32;9.45;;;4.75;;
45694;SDS011;31408;45.468;9.124;2023-08-20T08:40:57;10.00;;;5.68;;
45694;SDS011;31408;45.468;9.124;2023-08-20T08:43:23;7.35;;;4.68;;
45694;SDS011;31408;45.468;9.124;2023-08-20T08:45:49;8.27;;;4.60;;
45694;SDS011;31408;45.468;9.124;2023-08-20T08:48:14;11.85;;;4.22;;
45694;SDS011;31408;45.468;9.124;2023-08-20T08:50:40;10.27;;;4.68;;
45694;SDS011;31408;45.468;9.124;2023-08-20T08:53:06;9.23;;;4.97;;
45694;SDS011;31408;45.468;9.124;2023-08-20T08:55:32;7.15;;;4.57;;
45694;SDS011;31408;45.468;9.124;2023-08-20T08:57:58;10.68;;;5.10;;
45694;SDS011;31408;45.468;9.124;2023-08-20T09:00:23;7.65;;;4.57;;
45694;SDS011;31408;45.468;9.124;2023-08-20T09:02:48;7.28;;;5.05;;
45694;SDS011;31408;45.468;9.124;2023-08-20T09:05:13;8.90;;;4.18;;
45694;SDS011;31408;45.468;9.124;2023-08-20T09:07:43;8.23;;;3.88;;
45694;SDS011;31408;45.468;9.124;2023-08-20T09:10:09;8.05;;;4.47;;
45694;SDS011;31408;45.468;9.124;2023-08-20T09:12:34;8.20;;;4.47;;
45694;SDS011;31408;45.468;9.124;2023-08-20T09:15:01;9.35;;;4.25;;
45694;SDS011;31408;45.468;9.124;2023-08-20T09:17:26;7.60;;;4.25;;
45694;SDS011;31408;45.468;9.124;2023-08-20T09:19:53;9.60;;;4.97;;
45694;SDS011;31408;45.468;9.124;2023-08-20T09:22:19;10.10;;;4.20;;
45694;SDS011;31408;45.468;9.124;2023-08-20T09:24:45;6.93;;;4.35;;
45694;SDS011;31408;45.468;9.124;2023-08-20T09:27:14;8.82;;;4.53;;
45694;SDS011;31408;45.468;9.124;2023-08-20T09:29:53;8.85;;;4.80;;
45694;SDS011;31408;45.468;9.124;2023-08-20T09:32:19;7.13;;;4.35;;
45694;SDS011;31408;45.468;9.124;2023-08-20T09:34:45;7.10;;;4.25;;
45694;SDS011;31408;45.468;9.124;2023-08-20T09:37:14;9.05;;;4.57;;
45694;SDS011;31408;45.468;9.124;2023-08-20T09:39:40;9.60;;;5.03;;
45694;SDS011;31408;45.468;9.124;2023-08-20T09:42:06;9.40;;;5.15;;
45694;SDS011;31408;45.468;9.124;2023-08-20T09:44:35;6.03;;;4.60;;
45694;SDS011;31408;45.468;9.124;2023-08-20T09:47:01;12.77;;;4.55;;
45694;SDS011;31408;45.468;9.124;2023-08-20T09:49:28;8.73;;;4.47;;
45694;SDS011;31408;45.468;9.124;2023-08-20T09:51:54;10.05;;;5.20;;
45694;SDS011;31408;45.468;9.124;2023-08-20T09:54:25;7.35;;;4.63;;
45694;SDS011;31408;45.468;9.124;2023-08-20T09:56:51;9.80;;;4.68;;
45694;SDS011;31408;45.468;9.124;2023-08-20T09:59:19;6.38;;;4.50;;
45694;SDS011;31408;45.468;9.124;2023-08-20T10:01:44;9.32;;;5.10;;
45694;SDS011;31408;45.468;9.124;2023-08-20T10:04:09;7.53;;;5.20;;
45694;SDS011;31408;45.468;9.124;2023-08-20T10:06:35;4.75;;;3.83;;
45694;SDS011;31408;45.468;9.124;2023-08-20T10:09:01;9.13;;;4.40;;
45694;SDS011;31408;45.468;9.124;2023-08-20T10:11:27;8.30;;;5.05;;
45694;SDS011;31408;45.468;9.124;2023-08-20T10:13:52;8.20;;;4.68;;
45694;SDS011;31408;45.468;9.124;2023-08-20T10:16:18;7.45;;;4.43;;
45694;SDS011;31408;45.468;9.124;2023-08-20T10:18:49;13.10;;;5.60;;
45694;SDS011;31408;45.468;9.124;2023-08-20T10:21:14;11.70;;;5.43;;
45694;SDS011;31408;45.468;9.124;2023-08-20T10:23:40;8.93;;;5.00;;
45694;SDS011;31408;45.468;9.124;2023-08-20T10:26:06;11.05;;;5.45;;
45694;SDS011;31408;45.468;9.124;2023-08-20T10:28:32;10.95;;;4.82;;
45694;SDS011;31408;45.468;9.124;2023-08-20T10:33:36;13.60;;;5.18;;
45694;SDS011;31408;45.468;9.124;2023-08-20T10:36:15;6.35;;;4.15;;
45694;SDS011;31408;45.468;9.124;2023-08-20T10:38:46;7.15;;;4.80;;
45694;SDS011;31408;45.468;9.124;2023-08-20T10:41:12;8.05;;;4.40;;
45694;SDS011;31408;45.468;9.124;2023-08-20T10:43:38;7.75;;;5.32;;
45694;SDS011;31408;45.468;9.124;2023-08-20T10:46:14;6.38;;;4.88;;
45694;SDS011;31408;45.468;9.124;2023-08-20T10:48:47;8.15;;;4.75;;
45694;SDS011;31408;45.468;9.124;2023-08-20T10:51:14;7.70;;;5.13;;
45694;SDS011;31408;45.468;9.124;2023-08-20T10:53:40;6.07;;;4.35;;
45694;SDS011;31408;45.468;9.124;2023-08-20T10:56:07;11.80;;;5.07;;
45694;SDS011;31408;45.468;9.124;2023-08-20T10:58:32;10.68;;;5.60;;
45694;SDS011;31408;45.468;9.124;2023-08-20T11:01:19;7.38;;;4.38;;
45694;SDS011;31408;45.468;9.124;2023-08-20T11:03:44;7.07;;;4.40;;
45694;SDS011;31408;45.468;9.124;2023-08-20T11:06:10;7.43;;;4.70;;
45694;SDS011;31408;45.468;9.124;2023-08-20T11:08:36;10.00;;;4.93;;
45694;SDS011;31408;45.468;9.124;2023-08-20T11:11:01;11.05;;;5.20;;
45694;SDS011;31408;45.468;9.124;2023-08-20T11:13:28;10.40;;;5.13;;
45694;SDS011;31408;45.468;9.124;2023-08-20T11:15:53;10.70;;;6.40;;
45694;SDS011;31408;45.468;9.124;2023-08-20T11:18:18;7.50;;;4.60;;
45694;SDS011;31408;45.468;9.124;2023-08-20T11:20:44;6.20;;;4.43;;
45694;SDS011;31408;45.468;9.124;2023-08-20T11:23:09;10.27;;;4.65;;
45694;SDS011;31408;45.468;9.124;2023-08-20T11:25:46;10.07;;;4.93;;
45694;SDS011;31408;45.468;9.124;2023-08-20T11:28:11;10.35;;;5.32;;
45694;SDS011;31408;45.468;9.124;2023-08-20T11:30:37;7.72;;;4.88;;
45694;SDS011;31408;45.468;9.124;2023-08-20T11:33:03;6.63;;;4.47;;
45694;SDS011;31408;45.468;9.124;2023-08-20T11:35:28;8.50;;;4.63;;
45694;SDS011;31408;45.468;9.124;2023-08-20T11:37:54;9.73;;;4.78;;
45694;SDS011;31408;45.468;9.124;2023-08-20T11:40:22;7.88;;;5.10;;
45694;SDS011;31408;45.468;9.124;2023-08-20T11:42:48;7.65;;;4.82;;
45694;SDS011;31408;45.468;9.124;2023-08-20T11:45:13;6.28;;;4.43;;
45694;SDS011;31408;45.468;9.124;2023-08-20T11:47:39;11.57;;;6.55;;
45694;SDS011;31408;45.468;9.124;2023-08-20T11:50:05;7.07;;;4.60;;
45694;SDS011;31408;45.468;9.124;2023-08-20T11:52:31;10.50;;;4.80;;
45694;SDS011;31408;45.468;9.124;2023-08-20T11:54:57;9.48;;;5.68;;
45694;SDS011;31408;45.468;9.124;2023-08-20T11:57:22;7.13;;;4.75;;
45694;SDS011;31408;45.468;9.124;2023-08-20T11:59:48;6.45;;;4.50;;
45694;SDS011;31408;45.468;9.124;2023-08-20T12:02:13;10.63;;;4.95;;
45694;SDS011;31408;45.468;9.124;2023-08-20T12:04:39;11.43;;;5.22;;
45694;SDS011;31408;45.468;9.124;2023-08-20T12:07:13;7.22;;;5.15;;
45694;SDS011;31408;45.468;9.124;2023-08-20T12:09:39;7.22;;;5.03;;
45694;SDS011;31408;45.468;9.124;2023-08-20T12:12:08;6.60;;;5.15;;
45694;SDS011;31408;45.468;9.124;2023-08-20T12:14:33;7.15;;;4.82;;
45694;SDS011;31408;45.468;9.124;2023-08-20T12:16:59;6.35;;;5.00;;
45694;SDS011;31408;45.468;9.124;2023-08-20T12:19:24;9.13;;;6.18;;
45694;SDS011;31408;45.468;9.124;2023-08-20T12:21:49;7.13;;;4.63;;
45694;SDS011;31408;45.468;9.124;2023-08-20T12:24:15;8.20;;;5.50;;
45694;SDS011;31408;45.468;9.124;2023-08-20T12:26:41;10.02;;;5.22;;
45694;SDS011;31408;45.468;9.124;2023-08-20T12:29:06;7.40;;;4.85;;
45694;SDS011;31408;45.468;9.124;2023-08-20T12:31:32;8.15;;;5.32;;
45694;SDS011;31408;45.468;9.124;2023-08-20T12:33:57;9.88;;;4.97;;
45694;SDS011;31408;45.468;9.124;2023-08-20T12:36:23;6.68;;;4.68;;
45694;SDS011;31408;45.468;9.124;2023-08-20T12:38:48;10.52;;;5.78;;
45694;SDS011;31408;45.468;9.124;2023-08-20T12:41:13;9.02;;;5.20;;
45694;SDS011;31408;45.468;9.124;2023-08-20T12:43:39;6.25;;;4.82;;
45694;SDS011;31408;45.468;9.124;2023-08-20T12:46:05;10.68;;;5.95;;
45694;SDS011;31408;45.468;9.124;2023-08-20T12:48:30;11.20;;;5.20;;
45694;SDS011;31408;45.468;9.124;2023-08-20T12:50:56;8.95;;;5.43;;
45694;SDS011;31408;45.468;9.124;2023-08-20T12:53:21;8.45;;;4.90;;
45694;SDS011;31408;45.468;9.124;2023-08-20T12:55:47;10.20;;;5.47;;
45694;SDS011;31408;45.468;9.124;2023-08-20T12:58:12;9.13;;;5.30;;
45694;SDS011;31408;45.468;9.124;2023-08-20T13:00:37;6.78;;;4.38;;
45694;SDS011;31408;45.468;9.124;2023-08-20T13:03:03;8.10;;;5.22;;
45694;SDS011;31408;45.468;9.124;2023-08-20T13:05:28;9.50;;;5.47;;
45694;SDS011;31408;45.468;9.124;2023-08-20T13:07:54;8.00;;;5.45;;
45694;SDS011;31408;45.468;9.124;2023-08-20T13:10:19;7.70;;;4.95;;
45694;SDS011;31408;45.468;9.124;2023-08-20T13:12:47;7.72;;;5.03;;
45694;SDS011;31408;45.468;9.124;2023-08-20T13:15:14;12.50;;;5.78;;
45694;SDS011;31408;45.468;9.124;2023-08-20T13:17:41;7.43;;;5.20;;
45694;SDS011;31408;45.468;9.124;2023-08-20T13:20:06;11.65;;;5.28;;
45694;SDS011;31408;45.468;9.124;2023-08-20T13:22:33;8.80;;;4.90;;
45694;SDS011;31408;45.468;9.124;2023-08-20T13:24:58;9.10;;;6.05;;
45694;SDS011;31408;45.468;9.124;2023-08-20T13:27:24;15.02;;;5.13;;
45694;SDS011;31408;45.468;9.124;2023-08-20T13:29:49;12.75;;;6.90;;
45694;SDS011;31408;45.468;9.124;2023-08-20T13:32:15;11.65;;;5.57;;
45694;SDS011;31408;45.468;9.124;2023-08-20T13:34:40;10.98;;;5.35;;
45694;SDS011;31408;45.468;9.124;2023-08-20T13:37:06;20.42;;;6.90;;
45694;SDS011;31408;45.468;9.124;2023-08-20T13:39:31;8.38;;;5.55;;
45694;SDS011;31408;45.468;9.124;2023-08-20T13:41:56;8.18;;;5.22;;
45694;SDS011;31408;45.468;9.124;2023-08-20T13:44:22;7.97;;;5.82;;
45694;SDS011;31408;45.468;9.124;2023-08-20T13:46:47;8.35;;;5.20;;
45694;SDS011;31408;45.468;9.124;2023-08-20T13:49:12;13.75;;;5.82;;
45694;SDS011;31408;45.468;9.124;2023-08-20T13:51:38;9.07;;;5.60;;
45694;SDS011;31408;45.468;9.124;2023-08-20T13:54:03;12.63;;;6.45;;
45694;SDS011;31408;45.468;9.124;2023-08-20T13:56:29;8.10;;;5.78;;
45694;SDS011;31408;45.468;9.124;2023-08-20T13:58:54;7.80;;;4.85;;
45694;SDS011;31408;45.468;9.124;2023-08-20T14:01:19;11.40;;;5.65;;
45694;SDS011;31408;45.468;9.124;2023-08-20T14:03:45;8.80;;;5.90;;
45694;SDS011;31408;45.468;9.124;2023-08-20T14:06:10;10.35;;;5.72;;
45694;SDS011;31408;45.468;9.124;2023-08-20T14:08:35;9.30;;;5.65;;
45694;SDS011;31408;45.468;9.124;2023-08-20T14:11:01;11.13;;;5.53;;
45694;SDS011;31408;45.468;9.124;2023-08-20T14:13:26;9.68;;;5.55;;
45694;SDS011;31408;45.468;9.124;2023-08-20T14:15:51;8.75;;;5.88;;
45694;SDS011;31408;45.468;9.124;2023-08-20T14:18:17;9.25;;;5.97;;
45694;SDS011;31408;45.468;9.124;2023-08-20T14:20:42;9.27;;;5.95;;
45694;SDS011;31408;45.468;9.124;2023-08-20T14:23:07;10.05;;;5.10;;
45694;SDS011;31408;45.468;9.124;2023-08-20T14:25:33;12.02;;;5.63;;
45694;SDS011;31408;45.468;9.124;2023-08-20T14:27:59;12.13;;;6.15;;
45694;SDS011;31408;45.468;9.124;2023-08-20T14:30:24;9.55;;;5.53;;
45694;SDS011;31408;45.468;9.124;2023-08-20T14:32:50;10.13;;;5.35;;
45694;SDS011;31408;45.468;9.124;2023-08-20T14:35:15;8.32;;;5.63;;
45694;SDS011;31408;45.468;9.124;2023-08-20T14:37:40;7.53;;;4.97;;
45694;SDS011;31408;45.468;9.124;2023-08-20T14:40:06;13.50;;;7.55;;
45694;SDS011;31408;45.468;9.124;2023-08-20T14:42:32;7.70;;;5.32;;
45694;SDS011;31408;45.468;9.124;2023-08-20T14:44:58;9.60;;;5.40;;
45694;SDS011;31408;45.468;9.124;2023-08-20T14:47:23;8.50;;;5.57;;
45694;SDS011;31408;45.468;9.124;2023-08-20T14:49:48;8.50;;;6.15;;